Time;durP1;ratioP1;P1;durP2;ratioP2;P2;SDS_P1;SDS_P2;PMS_P1;PMS_P2;Temp;Humidity;BMP_temperature;BMP_pressure;BME280_temperature;BME280_humidity;BME280_pressure;Samples;Min_cycle;Max_cycle;Signal;HPM_P1;HPM_P2
2023/06/29 00:00:08;;;;;;;16.98;11.95;;;19.90;99.90;;;19.46;100.00;101368.31;4186673;28;20032;-76
2023/06/29 00:02:09;;;;;;;17.25;11.25;;;19.90;99.90;;;19.44;100.00;101367.69;4186418;28;20411;-76
2023/06/29 00:04:11;;;;;;;18.00;12.80;;;19.90;99.90;;;19.39;100.00;101354.06;4185948;28;20033;-76
2023/06/29 00:06:11;;;;;;;15.93;11.20;;;19.90;99.90;;;19.39;100.00;101362.09;4186222;28;20029;-76
2023/06/29 00:08:12;;;;;;;15.85;11.48;;;19.90;99.90;;;19.36;100.00;101362.44;4168906;28;20068;-76
2023/06/29 00:10:13;;;;;;;15.10;11.27;;;19.80;99.90;;;19.27;100.00;101355.59;4186347;28;20021;-76
2023/06/29 00:12:14;;;;;;;13.18;10.05;;;19.80;99.90;;;19.27;100.00;101353.75;4168607;28;20036;-76
2023/06/29 00:14:15;;;;;;;18.13;11.00;;;19.70;99.90;;;19.24;100.00;101356.00;4168575;28;20017;-76
2023/06/29 00:16:17;;;;;;;18.50;11.88;;;19.70;99.90;;;19.15;100.00;101354.50;4186236;28;20491;-76
2023/06/29 00:18:18;;;;;;;17.85;11.27;;;19.70;99.90;;;19.14;100.00;101351.03;4168615;28;20026;-76
2023/06/29 00:20:19;;;;;;;15.10;11.32;;;19.60;99.90;;;18.96;100.00;101336.50;4167960;28;20060;-76
2023/06/29 00:22:20;;;;;;;16.00;11.30;;;19.60;99.90;;;19.01;100.00;101347.44;4168417;28;20018;-76
2023/06/29 00:24:21;;;;;;;15.95;11.50;;;19.40;99.90;;;18.95;100.00;101354.41;4186117;28;20033;-76
2023/06/29 00:26:22;;;;;;;14.88;11.18;;;19.40;99.90;;;18.85;100.00;101345.06;4185976;28;20052;-76
2023/06/29 00:28:23;;;;;;;17.20;11.48;;;19.30;99.90;;;18.84;100.00;101351.44;4168347;28;20448;-76
2023/06/29 00:30:23;;;;;;;16.80;12.07;;;19.30;99.90;;;18.79;100.00;101352.00;4186183;28;20048;-76
2023/06/29 00:32:24;;;;;;;17.67;12.63;;;19.20;99.90;;;18.75;100.00;101353.44;4186086;28;20521;-76
2023/06/29 00:34:25;;;;;;;17.00;11.73;;;19.20;99.90;;;18.79;100.00;101358.19;4185924;28;20025;-76
2023/06/29 00:36:26;;;;;;;18.15;12.50;;;19.20;99.90;;;18.81;100.00;101352.66;4185927;28;20485;-76
2023/06/29 00:38:27;;;;;;;15.75;11.23;;;19.20;99.90;;;18.83;100.00;101355.97;4168174;28;20029;-76
2023/06/29 00:40:28;;;;;;;16.73;11.50;;;19.30;99.90;;;18.85;100.00;101353.91;4185971;28;20033;-76
2023/06/29 00:42:29;;;;;;;15.73;11.23;;;19.30;99.90;;;18.88;100.00;101353.53;4185841;28;20036;-76
2023/06/29 00:44:29;;;;;;;18.20;11.48;;;19.30;99.90;;;18.84;100.00;101340.75;4185821;28;20036;-76
2023/06/29 00:46:30;;;;;;;16.13;11.30;;;19.30;99.90;;;18.90;100.00;101345.31;4167825;28;20408;-76
2023/06/29 00:48:31;;;;;;;16.05;11.73;;;19.40;99.90;;;18.91;100.00;101346.94;4168128;28;20033;-76
2023/06/29 00:50:33;;;;;;;16.33;10.93;;;19.30;99.90;;;18.96;100.00;101355.22;4167850;28;20072;-76
2023/06/29 00:52:34;;;;;;;14.85;11.23;;;19.40;99.90;;;18.96;100.00;101347.22;4168190;28;20477;-76
2023/06/29 00:54:35;;;;;;;17.98;10.98;;;19.40;99.90;;;18.98;100.00;101347.81;4167808;28;20076;-76
2023/06/29 00:56:36;;;;;;;14.52;11.10;;;19.40;99.90;;;18.97;100.00;101351.50;4151806;28;20038;-76
2023/06/29 00:58:37;;;;;;;15.65;10.75;;;19.40;99.90;;;18.97;100.00;101352.34;4185855;28;20058;-76
2023/06/29 01:00:38;;;;;;;14.13;10.48;;;19.40;99.90;;;18.96;100.00;101342.69;4168040;28;20508;-76
2023/06/29 01:02:42;;;;;;;15.57;11.25;;;19.40;99.90;;;18.93;100.00;101340.41;4167897;28;20402;-76
2023/06/29 01:04:47;;;;;;;14.35;10.70;;;19.40;99.90;;;18.94;100.00;101335.88;4183978;28;20132;-76
2023/06/29 01:07:00;;;;;;;15.18;10.63;;;19.40;99.90;;;18.97;100.00;101341.66;4200308;28;20039;-76
2023/06/29 01:09:05;;;;;;;14.85;11.57;;;19.40;99.90;;;18.92;100.00;101330.72;4185279;28;20070;-76
2023/06/29 01:11:07;;;;;;;18.50;11.30;;;19.40;99.90;;;18.95;100.00;101333.00;4168231;28;20439;-76
2023/06/29 01:13:09;;;;;;;18.35;12.45;;;19.40;99.90;;;18.94;100.00;101334.03;4167725;28;20075;-76
2023/06/29 01:15:11;;;;;;;16.92;12.18;;;19.40;99.90;;;18.83;100.00;101317.69;4167608;28;20029;-76
2023/06/29 01:17:15;;;;;;;17.77;12.45;;;19.40;99.90;;;18.94;100.00;101335.88;4185266;28;20392;-76
2023/06/29 01:19:24;;;;;;;15.90;11.40;;;19.40;99.90;;;18.93;100.00;101336.91;4167539;28;20073;-76
2023/06/29 01:21:28;;;;;;;13.95;10.50;;;19.40;99.90;;;18.90;100.00;101331.94;4167498;28;20032;-76
2023/06/29 01:23:36;;;;;;;15.60;10.95;;;19.30;99.90;;;18.81;100.00;101317.09;4184068;28;20110;-76
2023/06/29 01:25:37;;;;;;;17.40;10.55;;;19.30;99.90;;;18.79;100.00;101318.09;4167760;28;20030;-76
2023/06/29 01:27:43;;;;;;;13.80;9.88;;;19.30;99.90;;;18.87;100.00;101337.69;4185324;28;20075;-76
2023/06/29 01:29:44;;;;;;;15.07;10.40;;;19.30;99.90;;;18.81;100.00;101336.63;4151852;28;20385;-76
2023/06/29 01:31:45;;;;;;;17.73;10.13;;;19.30;99.90;;;18.79;100.00;101326.13;4167552;28;20025;-76
2023/06/29 01:33:46;;;;;;;15.48;10.38;;;19.30;99.90;;;18.82;100.00;101329.44;4167837;28;20071;-76
2023/06/29 01:35:52;;;;;;;16.73;10.63;;;19.30;99.90;;;18.79;100.00;101331.47;4185000;28;20544;-76
2023/06/29 01:38:06;;;;;;;16.77;10.57;;;19.20;99.90;;;18.77;100.00;101327.34;4167921;28;20040;-76
2023/06/29 01:40:10;;;;;;;15.55;10.43;;;19.20;99.90;;;18.54;100.00;101295.53;4168153;28;20420;-76
2023/06/29 01:42:12;;;;;;;13.75;9.63;;;19.20;99.90;;;18.64;100.00;101324.56;4167631;28;20552;-76
2023/06/29 01:44:16;;;;;;;12.15;9.15;;;19.10;99.90;;;18.58;100.00;101326.16;4167582;28;20048;-76
2023/06/29 01:46:19;;;;;;;13.57;10.25;;;19.00;99.90;;;18.48;100.00;101316.81;4167286;28;20057;-76
2023/06/29 01:48:21;;;;;;;12.95;9.02;;;18.90;99.90;;;18.34;100.00;101310.50;4185226;28;20079;-75
2023/06/29 01:50:22;;;;;;;15.40;9.63;;;18.90;99.90;;;18.15;100.00;101295.16;4184949;28;20491;-76
2023/06/29 01:52:25;;;;;;;12.57;9.82;;;18.70;99.90;;;18.16;100.00;101318.16;4167509;28;20100;-76
2023/06/29 01:54:26;;;;;;;13.65;10.48;;;18.60;99.90;;;18.03;100.00;101318.88;4167157;28;20021;-76
2023/06/29 01:56:27;;;;;;;15.60;10.25;;;18.60;99.90;;;17.95;100.00;101318.97;4185219;28;20399;-76
2023/06/29 01:58:28;;;;;;;15.88;10.27;;;18.40;99.90;;;17.84;100.00;101308.81;4185033;28;20033;-76
2023/06/29 02:00:28;;;;;;;15.07;10.30;;;18.40;99.90;;;17.80;100.00;101312.06;4167324;28;20041;-76
2023/06/29 02:02:31;;;;;;;14.02;10.45;;;18.30;99.90;;;17.71;100.00;101315.88;4167199;28;20037;-76
2023/06/29 02:04:33;;;;;;;16.70;11.15;;;18.20;99.90;;;17.59;100.00;101305.66;4167062;28;20172;-76
2023/06/29 02:06:33;;;;;;;12.75;9.68;;;18.10;99.90;;;17.54;100.00;101296.53;4167396;28;20034;-76
2023/06/29 02:08:34;;;;;;;19.40;11.95;;;18.00;99.90;;;17.51;100.00;101303.09;4167355;28;20022;-76
2023/06/29 02:10:35;;;;;;;18.13;11.25;;;18.00;99.90;;;17.43;100.00;101295.19;4167050;28;20021;-76
2023/06/29 02:12:40;;;;;;;14.63;10.27;;;17.90;99.90;;;17.38;100.00;101291.44;4167193;28;20041;-76
2023/06/29 02:14:40;;;;;;;17.60;10.60;;;17.80;99.90;;;17.33;100.00;101297.31;4167315;28;20034;-76
2023/06/29 02:16:41;;;;;;;15.07;9.75;;;17.80;99.90;;;17.29;100.00;101296.06;4183596;28;20025;-76
2023/06/29 02:18:42;;;;;;;11.70;8.70;;;17.70;99.90;;;17.22;100.00;101289.81;4184520;28;20448;-76
2023/06/29 02:20:43;;;;;;;14.38;10.30;;;17.70;99.90;;;17.21;100.00;101293.47;4167037;28;20021;-76
2023/06/29 02:22:44;;;;;;;13.75;9.60;;;17.70;99.90;;;17.19;100.00;101300.00;4184752;28;20029;-76
2023/06/29 02:24:45;;;;;;;14.32;9.85;;;17.60;99.90;;;17.12;100.00;101294.59;4184803;28;20060;-76
2023/06/29 02:26:46;;;;;;;11.77;8.55;;;17.60;99.90;;;17.06;100.00;101287.31;4186563;28;20037;-76
2023/06/29 02:28:48;;;;;;;12.32;9.00;;;17.60;99.90;;;17.01;100.00;101293.22;4188036;28;20481;-76
2023/06/29 02:30:49;;;;;;;17.63;11.00;;;17.50;99.90;;;17.04;100.00;101292.84;4170528;28;20493;-76
2023/06/29 02:32:50;;;;;;;15.32;10.57;;;17.50;99.90;;;16.99;100.00;101281.09;4170025;28;20026;-76
2023/06/29 02:34:51;;;;;;;14.27;9.73;;;17.50;99.90;;;16.99;100.00;101291.75;4169992;28;20021;-76
2023/06/29 02:36:51;;;;;;;13.95;10.07;;;17.50;99.90;;;16.95;100.00;101283.28;4156799;28;20084;-76
2023/06/29 02:38:52;;;;;;;17.75;10.35;;;17.40;99.90;;;16.90;100.00;101280.38;4188130;28;20033;-76
2023/06/29 02:40:53;;;;;;;14.15;10.18;;;17.40;99.90;;;16.88;100.00;101284.19;4187981;28;20037;-76
2023/06/29 02:42:54;;;;;;;12.27;8.00;;;17.40;99.90;;;16.87;100.00;101279.91;4186655;28;20488;-76
2023/06/29 02:44:55;;;;;;;13.65;9.57;;;17.30;99.90;;;16.86;100.00;101287.06;4187576;28;20091;-76
2023/06/29 02:46:56;;;;;;;13.35;9.70;;;17.30;99.90;;;16.84;100.00;101275.78;4187691;28;20040;-76
2023/06/29 02:48:57;;;;;;;14.95;9.38;;;17.30;99.90;;;16.77;100.00;101269.50;4187689;28;20078;-76
2023/06/29 02:50:58;;;;;;;14.70;9.55;;;17.30;99.90;;;16.76;100.00;101267.84;4169760;28;20033;-76
2023/06/29 02:52:58;;;;;;;12.80;9.38;;;17.20;99.90;;;16.73;100.00;101272.72;4169807;28;20038;-76
2023/06/29 02:54:59;;;;;;;13.23;9.55;;;17.20;99.90;;;16.68;100.00;101278.59;4169956;28;20033;-76
2023/06/29 02:57:00;;;;;;;12.77;9.18;;;17.20;99.90;;;16.65;100.00;101272.81;4169829;28;20033;-76
2023/06/29 02:59:01;;;;;;;13.25;9.27;;;17.10;99.90;;;16.63;100.00;101285.47;4187321;28;20021;-76
2023/06/29 03:01:02;;;;;;;11.82;8.82;;;17.10;99.90;;;16.50;100.00;101262.09;4187364;28;20118;-76
2023/06/29 03:03:03;;;;;;;11.75;8.48;;;17.00;99.90;;;16.34;100.00;101244.44;4169915;28;20025;-76
2023/06/29 03:05:04;;;;;;;12.43;8.82;;;17.00;99.90;;;16.45;100.00;101268.00;4187155;28;20571;-76
2023/06/29 03:07:05;;;;;;;13.38;8.88;;;16.90;99.90;;;16.43;100.00;101267.31;4169928;28;20571;-76
2023/06/29 03:09:06;;;;;;;13.57;9.23;;;16.90;99.90;;;16.39;100.00;101276.69;4187375;28;20059;-76
2023/06/29 03:11:07;;;;;;;12.23;8.88;;;16.90;99.90;;;16.34;100.00;101280.88;4169751;28;20018;-76
2023/06/29 03:13:08;;;;;;;12.18;8.93;;;16.80;99.90;;;16.28;100.00;101281.59;4187335;28;20082;-75
2023/06/29 03:15:09;;;;;;;13.88;9.73;;;16.70;99.90;;;16.18;100.00;101268.56;4187348;28;20028;-76
2023/06/29 03:17:13;;;;;;;12.35;9.32;;;16.70;99.90;;;16.17;100.00;101279.38;4169583;28;20056;-76
2023/06/29 03:19:14;;;;;;;14.85;9.13;;;16.60;99.90;;;16.12;100.00;101281.75;4187009;28;20033;-76
2023/06/29 03:21:24;;;;;;;15.75;10.23;;;16.60;99.90;;;16.08;100.00;101286.59;4186979;28;20083;-75
2023/06/29 03:23:24;;;;;;;14.65;10.18;;;16.60;99.90;;;16.07;100.00;101284.13;4186986;28;20104;-76
2023/06/29 03:25:25;;;;;;;14.90;9.85;;;16.50;99.90;;;16.03;100.00;101281.00;4185595;28;20036;-76
2023/06/29 03:27:26;;;;;;;12.10;9.00;;;16.50;99.90;;;16.05;100.00;101276.31;4153058;28;20066;-76
2023/06/29 03:29:27;;;;;;;13.75;9.55;;;16.50;99.90;;;16.10;100.00;101276.59;4185864;28;20021;-76
2023/06/29 03:31:28;;;;;;;13.75;9.23;;;16.60;99.90;;;16.11;100.00;101286.25;4187077;28;20075;-76
2023/06/29 03:33:29;;;;;;;14.45;9.98;;;16.60;99.90;;;16.16;100.00;101278.53;4186830;28;20029;-76
2023/06/29 03:35:30;;;;;;;15.93;10.68;;;16.70;99.90;;;16.26;100.00;101281.81;4169407;28;20056;-76
2023/06/29 03:37:30;;;;;;;13.40;10.02;;;16.70;99.90;;;16.29;100.00;101286.75;4185787;28;20031;-76
2023/06/29 03:39:31;;;;;;;15.80;10.32;;;16.70;99.90;;;16.33;100.00;101282.75;4186739;28;20029;-75
2023/06/29 03:41:32;;;;;;;15.75;11.40;;;16.80;99.90;;;16.35;100.00;101272.72;4186610;28;20025;-76
2023/06/29 03:43:33;;;;;;;14.02;10.02;;;16.80;99.90;;;16.46;100.00;101277.63;4185489;28;20017;-75
2023/06/29 03:45:34;;;;;;;15.50;10.93;;;16.90;99.90;;;16.51;100.00;101285.06;4186952;28;20042;-76
2023/06/29 03:47:35;;;;;;;16.08;11.27;;;16.90;99.90;;;16.60;100.00;101281.34;4169199;28;20017;-75
2023/06/29 03:49:36;;;;;;;16.73;11.98;;;17.00;99.90;;;16.63;100.00;101280.16;4186485;28;20017;-76
2023/06/29 03:51:37;;;;;;;16.15;11.02;;;17.00;99.90;;;16.64;100.00;101284.47;4187045;28;20387;-76
2023/06/29 03:53:37;;;;;;;16.83;10.48;;;17.00;99.90;;;16.56;100.00;101282.72;4186740;28;20017;-76
2023/06/29 03:55:38;;;;;;;13.80;9.75;;;17.00;99.90;;;16.50;100.00;101278.91;4186355;28;20039;-75
2023/06/29 03:57:39;;;;;;;13.13;10.10;;;17.00;99.90;;;16.48;100.00;101280.09;4202038;28;20495;-76
2023/06/29 03:59:40;;;;;;;18.15;10.70;;;16.90;99.90;;;16.40;100.00;101282.81;4186829;28;20029;-76
2023/06/29 04:01:41;;;;;;;15.45;10.45;;;16.90;99.90;;;16.32;100.00;101274.91;4186333;28;20036;-76
2023/06/29 04:03:42;;;;;;;15.63;11.15;;;16.80;99.90;;;16.38;100.00;101285.69;4171128;28;20029;-76
2023/06/29 04:05:42;;;;;;;15.63;11.15;;;16.90;99.90;;;16.38;100.00;101285.69;4186040;28;20397;-75
2023/06/29 04:07:43;;;;;;;13.48;10.10;;;16.90;99.90;;;16.36;100.00;101284.22;4185395;28;20025;-75
2023/06/29 04:09:44;;;;;;;15.32;10.85;;;16.80;99.90;;;16.34;100.00;101287.03;4168775;28;20097;-76
2023/06/29 04:11:45;;;;;;;17.15;11.15;;;16.80;99.90;;;16.28;100.00;101279.78;4186461;28;20021;-76
2023/06/29 04:13:46;;;;;;;15.45;10.68;;;16.80;99.90;;;16.31;100.00;101287.41;4186295;28;20055;-76
2023/06/29 04:15:47;;;;;;;15.80;11.35;;;16.80;99.90;;;16.24;100.00;101283.81;4168699;28;20029;-75
2023/06/29 04:17:48;;;;;;;15.30;10.50;;;16.70;99.90;;;16.20;100.00;101279.03;4168478;28;20033;-75
2023/06/29 04:19:49;;;;;;;15.13;11.02;;;16.70;99.90;;;16.16;100.00;101283.06;4168291;28;20053;-76
2023/06/29 04:21:50;;;;;;;14.63;10.70;;;16.70;99.90;;;16.18;100.00;101289.03;4186284;28;20051;-75
2023/06/29 04:23:50;;;;;;;16.52;10.55;;;16.60;99.90;;;16.14;100.00;101290.38;4185847;28;20037;-75
2023/06/29 04:25:51;;;;;;;18.17;11.07;;;16.60;99.90;;;16.12;100.00;101287.09;4168462;28;20029;-76
2023/06/29 04:27:52;;;;;;;18.40;11.95;;;16.60;99.90;;;16.13;100.00;101292.22;4168375;28;20017;-76
2023/06/29 04:29:53;;;;;;;15.05;10.30;;;16.60;99.90;;;16.09;100.00;101285.59;4168385;28;20118;-75
2023/06/29 04:31:54;;;;;;;17.20;11.70;;;16.70;99.90;;;16.25;100.00;101303.25;4186038;28;20029;-76
2023/06/29 04:33:58;;;;;;;15.15;10.35;;;16.70;99.90;;;16.30;100.00;101304.41;4186264;28;20037;-75
2023/06/29 04:35:58;;;;;;;14.88;10.35;;;16.70;99.90;;;16.31;100.00;101298.06;4151758;28;20026;-76
2023/06/29 04:37:59;;;;;;;17.17;12.00;;;16.80;99.90;;;16.37;100.00;101302.66;4185874;28;20396;-76
2023/06/29 04:40:00;;;;;;;16.27;11.52;;;16.80;99.90;;;16.40;100.00;101294.31;4185928;28;20032;-75
2023/06/29 04:42:02;;;;;;;16.42;11.43;;;16.90;99.90;;;16.42;100.00;101297.66;4168240;28;20029;-76
2023/06/29 04:44:06;;;;;;;12.63;9.80;;;16.90;99.90;;;16.47;100.00;101299.75;4168308;28;20030;-75
2023/06/29 04:46:07;;;;;;;14.63;9.57;;;17.00;99.90;;;16.60;100.00;101305.31;4185757;28;20032;-76
2023/06/29 04:48:09;;;;;;;14.82;10.27;;;17.10;99.90;;;16.70;100.00;101308.53;4185682;28;20635;-76
2023/06/29 04:50:11;;;;;;;15.20;10.65;;;17.20;99.90;;;16.84;100.00;101306.91;4167930;28;20508;-76
2023/06/29 04:52:12;;;;;;;16.10;11.07;;;17.30;99.90;;;16.93;100.00;101304.00;4185697;28;20036;-75
2023/06/29 04:54:13;;;;;;;15.38;10.32;;;17.40;99.90;;;17.06;100.00;101303.31;4185688;28;20021;-76
2023/06/29 04:56:14;;;;;;;16.40;11.65;;;17.50;99.90;;;17.15;100.00;101310.22;4185679;28;20032;-76
2023/06/29 04:58:14;;;;;;;13.13;9.80;;;17.60;99.90;;;17.28;100.00;101310.38;4185604;28;20036;-76
2023/06/29 05:00:16;;;;;;;15.00;10.55;;;17.70;99.90;;;17.43;100.00;101308.53;4185637;28;20086;-75
2023/06/29 05:02:16;;;;;;;15.32;11.13;;;17.80;99.90;;;17.52;100.00;101302.06;4185598;28;20024;-76
2023/06/29 05:04:17;;;;;;;14.23;10.95;;;17.90;99.90;;;17.60;100.00;101304.66;4167468;28;20025;-75
2023/06/29 05:06:18;;;;;;;14.02;10.13;;;18.00;99.90;;;17.70;100.00;101312.38;4167978;28;20477;-76
2023/06/29 05:08:19;;;;;;;15.43;10.70;;;18.10;99.90;;;17.78;100.00;101311.41;4185471;28;20029;-76
2023/06/29 05:10:20;;;;;;;12.18;8.90;;;18.20;99.90;;;17.86;100.00;101309.44;4200829;28;20021;-76
2023/06/29 05:12:22;;;;;;;13.43;10.02;;;18.30;99.90;;;17.93;100.00;101309.53;4167552;28;20056;-75
2023/06/29 05:14:23;;;;;;;15.93;11.55;;;18.40;99.90;;;17.97;100.00;101305.47;4167827;28;20161;-76
2023/06/29 05:16:24;;;;;;;13.73;10.10;;;18.50;99.90;;;18.11;100.00;101316.06;4167754;28;20021;-75
2023/06/29 05:18:25;;;;;;;13.90;10.75;;;18.50;99.90;;;18.19;100.00;101317.78;4176430;28;20030;-75
2023/06/29 05:20:26;;;;;;;14.00;9.88;;;18.60;99.90;;;18.29;100.00;101320.97;4183742;28;20415;-76
2023/06/29 05:22:27;;;;;;;17.48;11.02;;;18.70;99.90;;;18.34;100.00;101313.19;4185457;28;20021;-76
2023/06/29 05:24:29;;;;;;;14.68;10.73;;;18.70;99.90;;;18.44;100.00;101316.38;4185361;28;20033;-76
2023/06/29 05:26:30;;;;;;;16.23;10.57;;;18.90;99.90;;;18.50;100.00;101322.81;4167537;28;20040;-76
2023/06/29 05:28:31;;;;;;;16.25;10.38;;;18.90;99.90;;;18.59;100.00;101316.31;4167283;28;20058;-76
2023/06/29 05:30:33;;;;;;;15.25;10.25;;;19.00;99.90;;;18.65;100.00;101310.19;4185292;28;20029;-76
2023/06/29 05:32:35;;;;;;;13.45;10.07;;;19.10;99.90;;;18.76;100.00;101313.13;4167686;28;20025;-76
2023/06/29 05:34:36;;;;;;;14.70;10.65;;;19.20;99.90;;;18.84;100.00;101312.19;4167552;28;20060;-76
2023/06/29 05:36:37;;;;;;;13.30;9.45;;;19.20;99.90;;;18.87;100.00;101310.94;4185058;28;20400;-76
2023/06/29 05:38:38;;;;;;;16.02;10.65;;;19.30;99.90;;;18.93;100.00;101323.53;4185222;28;20086;-76
2023/06/29 05:40:39;;;;;;;13.35;9.60;;;19.30;99.90;;;18.94;100.00;101317.16;4185218;28;20024;-75
2023/06/29 05:42:40;;;;;;;12.88;9.50;;;19.40;99.90;;;18.96;100.00;101317.78;4185263;28;20115;-75
2023/06/29 05:44:40;;;;;;;11.85;9.13;;;19.40;99.90;;;18.99;100.00;101317.41;4184906;28;20064;-76
2023/06/29 05:46:41;;;;;;;12.20;8.93;;;19.40;99.90;;;18.99;100.00;101312.06;4184605;28;20041;-76
2023/06/29 05:48:42;;;;;;;12.75;9.43;;;19.40;99.90;;;19.00;100.00;101321.72;4167396;28;20018;-76
2023/06/29 05:50:43;;;;;;;15.43;10.43;;;19.40;99.90;;;19.02;100.00;101317.00;4184860;28;20064;-76
2023/06/29 05:52:45;;;;;;;13.93;10.00;;;19.40;99.90;;;19.00;100.00;101314.53;4184921;28;20017;-75
2023/06/29 05:54:45;;;;;;;13.98;10.48;;;19.40;99.90;;;18.96;100.00;101305.25;4185308;28;20124;-75
2023/06/29 05:56:46;;;;;;;11.73;9.30;;;19.40;99.90;;;19.07;100.00;101325.25;4167483;28;20026;-76
2023/06/29 05:58:47;;;;;;;13.57;9.65;;;19.50;99.90;;;19.07;100.00;101325.25;4179403;28;20414;-76
2023/06/29 06:00:48;;;;;;;14.43;9.77;;;19.40;99.90;;;19.00;100.00;101309.16;4167995;28;20025;-76
2023/06/29 06:02:49;;;;;;;15.80;10.00;;;19.50;99.90;;;19.08;100.00;101318.91;4170807;28;20025;-75
2023/06/29 06:04:50;;;;;;;13.63;9.95;;;19.50;99.90;;;19.11;100.00;101318.50;4203245;28;20024;-76
2023/06/29 06:06:51;;;;;;;13.68;9.55;;;19.50;99.90;;;19.02;100.00;101311.66;4170592;28;20573;-76
2023/06/29 06:08:51;;;;;;;14.43;9.55;;;19.60;99.90;;;19.19;100.00;101318.34;4170531;28;20373;-76
2023/06/29 06:10:52;;;;;;;13.35;10.13;;;19.60;99.90;;;19.26;100.00;101319.19;4190153;28;20064;-75
2023/06/29 06:12:53;;;;;;;14.43;10.23;;;19.70;99.90;;;19.34;100.00;101317.19;4170756;28;20014;-76
2023/06/29 06:14:55;;;;;;;14.07;8.90;;;19.70;99.90;;;19.44;100.00;101330.22;4188319;28;20032;-76
2023/06/29 06:16:55;;;;;;;11.57;8.65;;;19.80;99.90;;;19.53;100.00;101315.66;4188170;28;20032;-76
2023/06/29 06:18:56;;;;;;;12.15;9.25;;;19.90;99.90;;;19.73;100.00;101326.41;4170203;28;20057;-76
2023/06/29 06:20:57;;;;;;;11.77;8.90;;;20.00;99.90;;;19.76;100.00;101305.41;4170526;28;20034;-76
2023/06/29 06:22:58;;;;;;;13.65;8.85;;;20.10;99.90;;;20.02;100.00;101328.75;4170408;28;20088;-76
2023/06/29 06:24:59;;;;;;;14.18;9.82;;;20.30;99.90;;;20.15;100.00;101341.34;4153932;28;20084;-76
2023/06/29 06:27:01;;;;;;;15.95;9.85;;;20.40;99.90;;;20.11;100.00;101330.19;4170392;28;20116;-76
2023/06/29 06:29:02;;;;;;;18.08;10.90;;;20.40;99.90;;;20.03;100.00;101326.88;4161128;28;20094;-76
2023/06/29 06:31:02;;;;;;;14.45;10.68;;;20.40;99.90;;;20.08;100.00;101343.16;4170081;28;20408;-76
2023/06/29 06:33:04;;;;;;;13.93;10.20;;;20.40;99.90;;;20.00;100.00;101338.00;4187893;28;20013;-75
2023/06/29 06:35:07;;;;;;;11.75;8.80;;;20.30;99.90;;;19.86;100.00;101321.09;4187493;28;20029;-75
2023/06/29 06:37:08;;;;;;;13.93;10.43;;;20.30;99.90;;;19.98;100.00;101346.22;4170537;28;20022;-76
2023/06/29 06:39:09;;;;;;;12.88;9.27;;;20.30;99.90;;;19.76;100.00;101342.06;4169908;28;20068;-76
2023/06/29 06:41:10;;;;;;;12.95;9.50;;;20.20;99.90;;;19.78;100.00;101335.47;4170243;28;20092;-76
2023/06/29 06:43:11;;;;;;;14.27;9.57;;;20.30;99.90;;;19.87;100.00;101333.44;4170015;28;20029;-76
2023/06/29 06:45:13;;;;;;;13.25;9.77;;;20.30;99.90;;;19.82;100.00;101320.69;4170283;28;20014;-76
2023/06/29 06:47:14;;;;;;;12.38;9.52;;;20.30;99.90;;;20.00;100.00;101349.56;4187759;28;20460;-76
2023/06/29 06:49:15;;;;;;;14.00;10.02;;;20.40;99.90;;;19.86;100.00;101355.91;4187401;28;20029;-76
2023/06/29 06:51:16;;;;;;;16.08;12.07;;;20.40;99.90;;;19.69;100.00;101350.06;4187602;28;20032;-75
2023/06/29 06:53:17;;;;;;;18.25;13.25;;;20.30;99.90;;;19.59;100.00;101357.63;4170088;28;20170;-75
2023/06/29 06:55:18;;;;;;;17.33;12.60;;;20.20;99.90;;;19.62;100.00;101346.53;4187670;28;20024;-76
2023/06/29 06:57:19;;;;;;;22.20;13.95;;;20.10;99.90;;;19.47;100.00;101353.91;4187649;28;20025;-76
2023/06/29 06:59:20;;;;;;;18.90;13.30;;;20.00;99.90;;;19.50;100.00;101356.19;4169816;28;20048;-76
2023/06/29 07:01:22;;;;;;;20.05;14.73;;;19.90;99.90;;;19.39;100.00;101364.75;4187730;28;20040;-76
2023/06/29 07:03:24;;;;;;;17.83;12.15;;;19.90;99.90;;;19.58;100.00;101358.69;4169985;28;20025;-76
2023/06/29 07:05:25;;;;;;;19.33;12.60;;;19.90;99.90;;;19.81;100.00;101364.53;4187260;28;20021;-75
2023/06/29 07:07:26;;;;;;;15.65;12.27;;;20.20;99.90;;;19.76;100.00;101363.47;4187345;28;20071;-76
2023/06/29 07:09:27;;;;;;;19.08;11.95;;;20.30;99.90;;;19.59;100.00;101367.53;4169798;28;20077;-76
2023/06/29 07:11:28;;;;;;;16.02;11.35;;;20.20;99.90;;;19.62;100.00;101361.78;4186041;28;20021;-76
2023/06/29 07:13:29;;;;;;;16.13;10.40;;;20.20;99.90;;;19.80;100.00;101354.03;4169556;28;20030;-76
2023/06/29 07:15:30;;;;;;;13.63;8.55;;;20.30;99.90;;;19.79;100.00;101363.91;4187323;28;20053;-75
2023/06/29 07:17:32;;;;;;;7.13;4.47;;;20.30;99.90;;;19.69;100.00;101366.13;4169874;28;20029;-76
2023/06/29 07:19:33;;;;;;;4.50;3.60;;;20.30;99.90;;;19.71;100.00;101372.09;4169173;28;20552;-76
2023/06/29 07:21:34;;;;;;;5.88;2.17;;;20.30;99.90;;;19.65;100.00;101359.50;4170885;28;20029;-75
2023/06/29 07:23:35;;;;;;;3.67;1.30;;;20.30;99.90;;;20.00;100.00;101375.50;4170479;28;20171;-76
2023/06/29 07:25:35;;;;;;;2.88;1.00;;;20.40;99.90;;;20.11;100.00;101372.22;4170663;28;20044;-76
2023/06/29 07:27:37;;;;;;;1.85;0.93;;;20.50;99.90;;;20.32;100.00;101375.59;4170579;28;20025;-76
2023/06/29 07:29:42;;;;;;;1.40;0.52;;;20.60;99.90;;;19.98;100.00;101377.56;4202540;28;20082;-76
2023/06/29 07:31:43;;;;;;;2.75;0.90;;;20.60;99.90;;;20.00;100.00;101375.50;4153507;28;20041;-75
2023/06/29 07:33:44;;;;;;;2.60;0.70;;;20.60;99.90;;;20.02;100.00;101384.16;4169332;28;20030;-75
2023/06/29 07:35:44;;;;;;;1.30;0.70;;;20.50;99.90;;;20.00;100.00;101394.25;4169080;28;20026;-75
2023/06/29 07:37:45;;;;;;;2.00;0.63;;;20.50;99.90;;;19.63;100.00;101380.31;4170377;28;20037;-76
2023/06/29 07:39:46;;;;;;;2.60;0.70;;;20.40;99.90;;;19.65;100.00;101399.66;4185759;28;20021;-76
2023/06/29 07:41:48;;;;;;;2.50;0.70;;;20.30;99.90;;;19.59;100.00;101396.97;4152810;28;20034;-75
2023/06/29 07:43:55;;;;;;;1.45;0.55;;;20.10;99.90;;;19.19;100.00;101394.06;4170368;28;20028;-76
2023/06/29 07:45:56;;;;;;;4.45;0.75;;;20.00;99.90;;;19.29;100.00;101396.38;4169123;28;20037;-75
2023/06/29 07:47:57;;;;;;;2.40;0.70;;;19.90;99.90;;;19.33;100.00;101397.63;4152596;28;20024;-75
2023/06/29 07:49:58;;;;;;;3.42;0.95;;;19.90;99.90;;;19.31;100.00;101402.34;4168887;28;20026;-76
2023/06/29 07:51:59;;;;;;;1.33;0.60;;;19.90;99.90;;;19.25;100.00;101397.78;4169909;28;20032;-75
2023/06/29 07:54:02;;;;;;;1.90;1.05;;;19.80;99.90;;;19.28;100.00;101413.44;4170170;28;20489;-76
2023/06/29 07:56:03;;;;;;;1.83;0.60;;;19.80;99.90;;;19.31;100.00;101397.00;4201804;28;20492;-76
2023/06/29 07:58:03;;;;;;;1.17;0.50;;;19.80;99.90;;;19.42;100.00;101404.50;4170193;28;20053;-76
2023/06/29 08:00:06;;;;;;;1.05;0.43;;;19.90;99.90;;;19.53;100.00;101405.81;4168914;28;20083;-76
2023/06/29 08:02:08;;;;;;;1.90;0.90;;;20.00;99.90;;;19.40;100.00;101406.56;4170039;28;20116;-76
2023/06/29 08:04:09;;;;;;;1.85;0.47;;;20.10;99.90;;;19.41;100.00;101410.91;4169596;28;20042;-76
2023/06/29 08:06:10;;;;;;;2.80;0.68;;;20.00;99.90;;;19.49;100.00;101399.19;4168844;28;20072;-76
2023/06/29 08:08:12;;;;;;;13.32;1.02;;;20.10;99.90;;;19.80;100.00;101408.38;4169940;28;20022;-76
2023/06/29 08:10:14;;;;;;;1.70;0.50;;;20.30;99.90;;;19.92;100.00;101410.50;4168950;28;20028;-76
2023/06/29 08:12:15;;;;;;;1.35;0.40;;;20.50;99.90;;;19.80;100.00;101405.72;4168520;28;20025;-76